Airfield :
LOGIN :

Register | Disclaimer

   EN    FR    IT 

 










Legend :    VFR   Marginal VFR   IFR   Intensive IFR   Very Intensive IFR
Visi :
Ceiling :
>= 8 km
>= 3000ft
5 to 8 km
1000 to 3000 ft
1500m to 5 km
500 to 1000 ft
800 to 1500m
200 to 500 ft
< 800m
< 200 ft
Symbols :   Thunderstorms  Fog  Heavy snow  Heavy precipitations  Wind > 20 kt
SIGMETs :     Misc.  Thunderstorms  Icing  Turbulence  Mountain Waves  Volcanic Ashes






- Airport Elevation : 665 ft
- IATA code : NOC


EIKN - Connaught / Knock- Ireland West

CURRENT METAR :
  • 231700Z 18020KT 140V210 9999 -RA BKN005 OVC008 12/11 Q1007 NOSIG

EXPIRED METARs :
  • 231630Z 18018G28KT 150V230 6000 -RA BKN005 OVC008 12/11 Q1007 NOSIG
  • 231600Z 17017KT 6000 -RA BKN005 OVC009 12/11 Q1007 NOSIG
  • 231530Z 17017KT 140V220 6000 -RA BKN004 OVC008 11/11 Q1007 NOSIG
  • 231500Z 17016G28KT 140V210 6000 -RA BKN004 OVC009 11/11 Q1008 NOSIG
  • 231430Z 16020KT 140V210 4500 -RA OVC004 11/11 Q1008 NOSIG

TAF TAF EIKN
Valid from the 23 at 12:00 until the 24 at 12:00 UTC


231100Z 2312/2412 18017KT 9999 -RA SCT008 BKN015
BECMG 2312/2314 5000 SCT004 BKN008
TEMPO 2312/2323 19018G30KT
TEMPO 2314/2402 2000 -RADZ BR BKN004
PROB40
TEMPO 2316/2402 0700 RADZ FG BKN002
BECMG 2402/2404 21013KT 9999 SCT010 BKN016
TEMPO 2404/2409 -SHRA BKN010 FEW018CB
PROB30
TEMPO 2404/2409 4000
BECMG 2409/2411 22018G30KT
TEMPO 2409/2412 4000 SHRA BKN010 SCT018CB



MET'MAP, your aeronautical weather chart ! - Copyright ORBIFLY December 2007 - Disclaimer

ORBIFLY MET'MAP TEAM :

Programming & Development : Alexandra Zaïnal
Concept & original design : Baudouin d'Aumeries
Assistance for programming : Marc-Olivier Méhu
Technical & hardware support : Manuel Goepfert

Contact : metmap@orbifly.com




SOURCES & CREDITS :

   NOAA